Time;durP1;ratioP1;P1;durP2;ratioP2;P2;SDS_P1;SDS_P2;PMS_P1;PMS_P2;Temp;Humidity;BMP_temperature;BMP_pressure;BME280_temperature;BME280_humidity;BME280_pressure;Samples;Min_cycle;Max_cycle;Signal;HPM_P1;HPM_P2
2022/07/24 00:01:36;;;;;;;;;;;;;;;18.74;48.16;101732.06;5017907;28;19964;-52
2022/07/24 00:04:05;;;;;;;;;;;;;;;18.70;48.19;101735.94;5017336;28;19917;-55
2022/07/24 00:06:31;;;;;;;;;;;;;;;18.69;48.12;101732.44;5013961;28;19917;-53
2022/07/24 00:08:56;;;;;;;;;;;;;;;18.70;48.31;101733.25;5014275;28;19998;-53
2022/07/24 00:11:21;;;;;;;;;;;;;;;18.68;48.30;101728.06;5017929;28;20042;-57
2022/07/24 00:13:47;;;;;;;;;;;;;;;18.68;48.31;101733.41;5019883;28;19921;-53
2022/07/24 00:16:12;;;;;;;;;;;;;;;18.68;48.45;101722.72;5015654;28;19928;-54
2022/07/24 00:18:38;;;;;;;;;;;;;;;18.66;48.56;101719.34;5015910;28;19928;-53
2022/07/24 00:21:03;;;;;;;;;;;;;;;18.62;48.39;101725.03;5016136;28;20028;-53
2022/07/24 00:23:28;;;;;;;;;;;;;;;18.61;48.59;101724.16;5013947;28;19916;-53
2022/07/24 00:25:54;;;;;;;;;;;;;;;18.61;48.67;101729.50;5019240;28;19920;-53
2022/07/24 00:28:19;;;;;;;;;;;;;;;18.58;48.73;101717.25;5019342;28;20340;-53
2022/07/24 00:30:45;;;;;;;;;;;;;;;18.56;48.71;101719.19;5017090;28;20039;-53
2022/07/24 00:33:10;;;;;;;;;;;;;;;18.55;49.06;101720.16;5010711;28;19971;-53
2022/07/24 00:35:35;;;;;;;;;;;;;;;18.54;48.92;101726.44;5014562;28;19917;-52
2022/07/24 00:38:01;;;;;;;;;;;;;;;18.52;48.89;101739.06;5016555;28;20914;-54
2022/07/24 00:40:28;;;;;;;;;;;;;;;18.50;49.21;101738.31;5018089;28;20296;-53
2022/07/24 00:42:53;;;;;;;;;;;;;;;18.46;49.12;101735.97;5021372;28;19962;-54
2022/07/24 00:45:18;;;;;;;;;;;;;;;18.41;49.27;101736.34;5011872;28;19921;-54
2022/07/24 00:47:44;;;;;;;;;;;;;;;18.35;49.41;101729.66;5011994;28;19921;-54
2022/07/24 00:50:09;;;;;;;;;;;;;;;18.33;49.40;101733.41;5014300;28;19921;-53
2022/07/24 00:52:35;;;;;;;;;;;;;;;18.32;49.50;101737.03;5011023;28;19929;-53
2022/07/24 00:55:00;;;;;;;;;;;;;;;18.30;49.69;101738.97;5017781;28;19917;-53
2022/07/24 00:57:26;;;;;;;;;;;;;;;18.23;49.67;101735.91;5021025;28;19924;-52
2022/07/24 00:59:51;;;;;;;;;;;;;;;18.17;49.86;101747.00;5011792;28;20068;-52
2022/07/24 01:02:16;;;;;;;;;;;;;;;18.15;49.95;101735.66;5017989;28;20342;-53
2022/07/24 01:04:42;;;;;;;;;;;;;;;18.15;49.98;101740.97;5017914;28;19924;-53
2022/07/24 01:07:07;;;;;;;;;;;;;;;18.13;50.11;101747.25;5014476;28;20028;-54
2022/07/24 01:09:32;;;;;;;;;;;;;;;18.12;50.15;101742.03;5022005;28;19928;-55
2022/07/24 01:11:58;;;;;;;;;;;;;;;18.11;50.08;101733.19;5025922;28;19951;-55
2022/07/24 01:14:23;;;;;;;;;;;;;;;18.11;50.19;101745.66;5015551;28;20558;-53
2022/07/24 01:16:49;;;;;;;;;;;;;;;18.07;50.13;101742.38;5015513;28;19924;-53
2022/07/24 01:19:15;;;;;;;;;;;;;;;18.06;50.23;101742.50;5025581;28;20303;-52
2022/07/24 01:21:51;;;;;;;;;;;;;;;18.03;50.39;101745.38;5022317;28;20285;-54
2022/07/24 01:24:16;;;;;;;;;;;;;;;18.01;50.55;101755.28;5024169;28;19963;-56
2022/07/24 01:26:42;;;;;;;;;;;;;;;18.00;50.52;101748.25;5023325;28;20040;-53
2022/07/24 01:29:07;;;;;;;;;;;;;;;17.97;50.32;101739.53;5023404;28;20278;-53
2022/07/24 01:31:33;;;;;;;;;;;;;;;17.97;50.53;101746.66;5029000;28;20011;-53
2022/07/24 01:33:58;;;;;;;;;;;;;;;17.98;50.61;101743.06;5019273;28;19918;-54
2022/07/24 01:36:23;;;;;;;;;;;;;;;17.98;50.49;101743.06;5019191;28;19924;-54
2022/07/24 01:38:49;;;;;;;;;;;;;;;17.96;50.77;101753.78;5025261;28;19917;-57
2022/07/24 01:41:14;;;;;;;;;;;;;;;17.95;50.76;101746.75;5020282;28;20197;-53
2022/07/24 01:43:39;;;;;;;;;;;;;;;17.96;50.73;101753.78;5017897;28;19916;-54
2022/07/24 01:46:05;;;;;;;;;;;;;;;17.93;50.90;101754.00;5017176;28;19992;-56
2022/07/24 01:48:30;;;;;;;;;;;;;;;17.89;50.74;101749.88;5017536;28;20214;-54
2022/07/24 01:50:56;;;;;;;;;;;;;;;17.88;50.76;101755.28;5025301;28;19920;-53
2022/07/24 01:53:21;;;;;;;;;;;;;;;17.86;50.94;101747.44;5026854;28;19925;-54
2022/07/24 01:55:49;;;;;;;;;;;;;;;17.84;50.95;101752.03;5023365;28;19964;-53
2022/07/24 01:58:14;;;;;;;;;;;;;;;17.82;51.15;101748.63;5021726;28;19979;-52
2022/07/24 02:00:39;;;;;;;;;;;;;;;17.82;51.04;101751.28;5020117;28;19917;-54
2022/07/24 02:03:04;;;;;;;;;;;;;;;17.80;50.97;101753.19;5018488;28;20447;-52
2022/07/24 02:05:30;;;;;;;;;;;;;;;17.76;51.18;101752.56;5018446;28;19927;-52
2022/07/24 02:07:57;;;;;;;;;;;;;;;17.73;51.15;101751.97;5015994;28;20353;-53
2022/07/24 02:10:23;;;;;;;;;;;;;;;17.67;51.51;101755.91;5021376;28;19952;-53
2022/07/24 02:12:48;;;;;;;;;;;;;;;17.62;51.46;101756.22;5020657;28;20012;-53
2022/07/24 02:15:13;;;;;;;;;;;;;;;17.62;51.59;101758.88;5019745;28;19912;-53
2022/07/24 02:17:39;;;;;;;;;;;;;;;17.60;51.67;101758.16;5021642;28;20967;-56
2022/07/24 02:20:05;;;;;;;;;;;;;;;17.58;51.67;101754.75;5023080;28;19955;-54
2022/07/24 02:22:30;;;;;;;;;;;;;;;17.54;51.68;101750.59;5026490;28;20412;-53
2022/07/24 02:24:55;;;;;;;;;;;;;;;17.54;51.68;101752.44;5015258;28;19925;-54
2022/07/24 02:27:20;;;;;;;;;;;;;;;17.50;51.88;101752.66;5022699;28;20384;-53
2022/07/24 02:29:46;;;;;;;;;;;;;;;17.50;51.90;101749.13;5026820;28;20007;-52
2022/07/24 02:32:11;;;;;;;;;;;;;;;17.48;51.86;101753.69;5027248;28;19917;-52
2022/07/24 02:34:37;;;;;;;;;;;;;;;17.46;51.86;101758.31;5020622;28;19917;-52
2022/07/24 02:37:02;;;;;;;;;;;;;;;17.41;52.01;101757.75;5021077;28;19990;-53
2022/07/24 02:39:27;;;;;;;;;;;;;;;17.35;52.09;101762.53;5027826;28;19917;-52
2022/07/24 02:41:53;;;;;;;;;;;;;;;17.32;52.09;101757.44;5024410;28;20365;-53
2022/07/24 02:44:18;;;;;;;;;;;;;;;17.34;52.18;101758.19;5013466;28;19921;-53
2022/07/24 02:46:43;;;;;;;;;;;;;;;17.32;52.27;101761.91;5029235;28;19924;-52
2022/07/24 02:49:08;;;;;;;;;;;;;;;17.33;52.17;101760.97;5026585;28;20288;-52
2022/07/24 02:51:34;;;;;;;;;;;;;;;17.31;51.95;101769.06;5024873;28;19916;-54
2022/07/24 02:53:59;;;;;;;;;;;;;;;17.31;52.22;101768.19;5033490;28;19948;-55
2022/07/24 02:56:24;;;;;;;;;;;;;;;17.30;52.39;101772.69;5031049;28;19917;-53
2022/07/24 02:58:50;;;;;;;;;;;;;;;17.33;52.41;101775.09;5025691;28;20368;-53
2022/07/24 03:01:15;;;;;;;;;;;;;;;17.36;52.26;101771.41;5028735;28;19917;-52
2022/07/24 03:03:40;;;;;;;;;;;;;;;17.37;52.24;101770.44;5028226;28;20381;-52
2022/07/24 03:06:06;;;;;;;;;;;;;;;17.39;52.36;101770.31;5025792;28;19917;-53
2022/07/24 03:08:31;;;;;;;;;;;;;;;17.39;52.33;101767.66;5033213;28;19921;-52
2022/07/24 03:10:56;;;;;;;;;;;;;;;17.39;52.15;101780.97;5034571;28;19924;-56
2022/07/24 03:13:22;;;;;;;;;;;;;;;17.37;52.29;101776.59;5028462;28;20296;-54
2022/07/24 03:15:47;;;;;;;;;;;;;;;17.35;52.41;101786.50;5036049;28;19920;-56
2022/07/24 03:18:12;;;;;;;;;;;;;;;17.32;52.55;101786.69;5028738;28;19924;-54
2022/07/24 03:20:38;;;;;;;;;;;;;;;17.29;52.50;101786.94;5028014;28;19924;-55
2022/07/24 03:23:03;;;;;;;;;;;;;;;17.27;52.65;101780.88;5035740;28;19913;-56
2022/07/24 03:25:28;;;;;;;;;;;;;;;17.24;52.57;101781.06;5019009;28;20014;-55
2022/07/24 03:27:53;;;;;;;;;;;;;;;17.20;52.67;101782.25;5025213;28;19926;-53
2022/07/24 03:30:19;;;;;;;;;;;;;;;17.15;52.73;101784.38;5028654;28;19921;-53
2022/07/24 03:32:45;;;;;;;;;;;;;;;17.09;53.02;101787.47;5030573;28;19924;-56
2022/07/24 03:35:10;;;;;;;;;;;;;;;17.05;53.24;101790.31;5028265;28;19929;-54
2022/07/24 03:37:36;;;;;;;;;;;;;;;17.06;53.07;101792.03;5027796;28;19913;-56
2022/07/24 03:40:02;;;;;;;;;;;;;;;17.09;53.22;101798.09;5024908;28;19956;-54
2022/07/24 03:42:27;;;;;;;;;;;;;;;17.08;53.18;101799.03;5022955;28;24851;-56
2022/07/24 03:44:53;;;;;;;;;;;;;;;17.05;53.31;101795.63;5029115;28;19924;-56
2022/07/24 03:47:18;;;;;;;;;;;;;;;17.05;53.32;101795.63;5024026;28;19921;-56
2022/07/24 03:49:43;;;;;;;;;;;;;;;17.02;53.29;101785.22;5025564;28;19960;-57
2022/07/24 03:52:09;;;;;;;;;;;;;;;17.01;53.48;101799.50;5017890;28;19935;-52
2022/07/24 03:54:34;;;;;;;;;;;;;;;17.00;53.57;101792.47;5028796;28;20384;-55
2022/07/24 03:56:59;;;;;;;;;;;;;;;16.99;53.55;101801.41;5027890;28;19917;-57
2022/07/24 03:59:25;;;;;;;;;;;;;;;16.97;53.44;101811.28;5030239;28;19917;-53
2022/07/24 04:01:50;;;;;;;;;;;;;;;16.96;53.53;101804.25;5026876;28;19921;-53
2022/07/24 04:04:15;;;;;;;;;;;;;;;16.99;53.59;101806.72;5020633;28;19921;-53
2022/07/24 04:06:41;;;;;;;;;;;;;;;17.02;53.53;101805.63;5024267;28;20299;-53
2022/07/24 04:09:06;;;;;;;;;;;;;;;17.04;53.54;101814.38;5024397;28;20391;-53
2022/07/24 04:11:32;;;;;;;;;;;;;;;17.04;53.48;101814.38;5027019;28;19913;-54
2022/07/24 04:13:57;;;;;;;;;;;;;;;17.03;53.48;101815.31;5030333;28;20440;-56
2022/07/24 04:16:23;;;;;;;;;;;;;;;17.05;53.45;101816.91;5030004;28;19928;-51
2022/07/24 04:18:49;;;;;;;;;;;;;;;17.09;53.44;101811.38;5026647;28;19917;-54
2022/07/24 04:21:14;;;;;;;;;;;;;;;17.12;53.42;101822.66;5023675;28;19917;-52
2022/07/24 04:23:39;;;;;;;;;;;;;;;17.15;53.51;101817.13;5024998;28;19959;-57
2022/07/24 04:26:06;;;;;;;;;;;;;;;17.17;53.44;101820.53;5022926;28;19917;-54
2022/07/24 04:28:31;;;;;;;;;;;;;;;17.22;53.52;101822.88;5024735;28;19913;-58
2022/07/24 04:30:56;;;;;;;;;;;;;;;17.24;53.55;101820.97;5022778;28;19970;-58
2022/07/24 04:33:22;;;;;;;;;;;;;;;17.28;53.52;101825.13;5027833;28;19933;-54
2022/07/24 04:35:47;;;;;;;;;;;;;;;17.32;53.42;101821.28;5029305;28;20376;-53
2022/07/24 04:38:12;;;;;;;;;;;;;;;17.35;53.32;101821.06;5024886;28;20008;-52
2022/07/24 04:40:38;;;;;;;;;;;;;;;17.36;53.45;101824.59;5020215;28;19925;-54
2022/07/24 04:43:03;;;;;;;;;;;;;;;17.37;53.51;101827.13;5026748;28;19917;-52
2022/07/24 04:45:28;;;;;;;;;;;;;;;17.41;53.60;101826.94;5023454;28;19917;-53
2022/07/24 04:47:54;;;;;;;;;;;;;;;17.43;53.38;101830.34;5022770;28;20330;-53
2022/07/24 04:50:19;;;;;;;;;;;;;;;17.43;53.45;101830.34;5020187;28;19924;-54
2022/07/24 04:52:44;;;;;;;;;;;;;;;17.46;53.43;101835.47;5022844;28;19925;-57
2022/07/24 04:55:10;;;;;;;;;;;;;;;17.46;53.53;101828.31;5023089;28;19913;-56
2022/07/24 04:57:36;;;;;;;;;;;;;;;17.47;53.29;101838.00;5028035;28;20334;-55
2022/07/24 05:00:01;;;;;;;;;;;;;;;17.48;53.18;101838.84;5033780;28;19921;-53
2022/07/24 05:02:26;;;;;;;;;;;;;;;17.48;53.21;101839.69;5034602;28;20357;-56
2022/07/24 05:04:52;;;;;;;;;;;;;;;17.49;53.10;101833.44;5029629;28;20344;-57
2022/07/24 05:07:17;;;;;;;;;;;;;;;17.48;52.89;101828.19;5034077;28;19970;-52
2022/07/24 05:09:42;;;;;;;;;;;;;;;17.42;52.97;101825.97;5033709;28;20049;-53
2022/07/24 05:12:08;;;;;;;;;;;;;;;17.32;53.09;101826.59;5031598;28;19913;-51
2022/07/24 05:14:33;;;;;;;;;;;;;;;17.28;53.24;101827.78;5035761;28;19966;-54
2022/07/24 05:16:58;;;;;;;;;;;;;;;17.26;53.21;101824.38;5037346;28;19921;-53
2022/07/24 05:19:24;;;;;;;;;;;;;;;17.26;53.26;101829.69;5032437;28;20287;-53
2022/07/24 05:21:49;;;;;;;;;;;;;;;17.28;53.29;101833.13;5034071;28;20044;-53
2022/07/24 05:24:14;;;;;;;;;;;;;;;17.25;53.40;101830.66;5033137;28;20284;-53
2022/07/24 05:26:40;;;;;;;;;;;;;;;17.19;53.46;101833.72;5033687;28;19984;-52
2022/07/24 05:29:08;;;;;;;;;;;;;;;17.13;53.77;101836.81;5025930;28;20059;-58
2022/07/24 05:31:33;;;;;;;;;;;;;;;17.10;53.70;101832.53;5031210;28;19917;-58
2022/07/24 05:34:01;;;;;;;;;;;;;;;17.11;53.88;101831.59;5032795;28;19925;-56
2022/07/24 05:36:27;;;;;;;;;;;;;;;17.14;53.89;101835.88;5037973;28;19912;-58
2022/07/24 05:38:52;;;;;;;;;;;;;;;17.18;53.77;101838.22;5031793;28;21044;-52
2022/07/24 05:41:17;;;;;;;;;;;;;;;17.20;53.72;101838.09;5024733;28;19994;-52
2022/07/24 05:43:43;;;;;;;;;;;;;;;17.19;53.84;101844.38;5031208;28;20345;-53
2022/07/24 05:46:08;;;;;;;;;;;;;;;17.20;53.78;101835.44;5031017;28;20364;-52
2022/07/24 05:48:33;;;;;;;;;;;;;;;17.20;53.75;101830.09;5035078;28;19913;-53
2022/07/24 05:50:59;;;;;;;;;;;;;;;17.19;53.74;101831.94;5030290;28;19916;-51
2022/07/24 05:53:24;;;;;;;;;;;;;;;17.19;53.70;101845.22;5033687;28;19921;-53
2022/07/24 05:55:50;;;;;;;;;;;;;;;17.23;53.74;101850.34;5018508;28;19921;-53
2022/07/24 05:58:16;;;;;;;;;;;;;;;17.30;53.72;101840.97;5028799;28;19963;-51
2022/07/24 06:00:41;;;;;;;;;;;;;;;17.36;53.58;101849.38;5031403;28;19921;-54
2022/07/24 06:03:06;;;;;;;;;;;;;;;17.36;53.46;101843.22;5025944;28;20384;-51
2022/07/24 06:05:32;;;;;;;;;;;;;;;17.36;53.41;101837.91;5024294;28;19917;-52
2022/07/24 06:07:57;;;;;;;;;;;;;;;17.32;53.53;101837.25;5025395;28;19920;-53
2022/07/24 06:10:22;;;;;;;;;;;;;;;17.30;53.66;101839.19;5022811;28;20632;-57
2022/07/24 06:12:48;;;;;;;;;;;;;;;17.34;53.54;101843.31;5026684;28;19925;-52
2022/07/24 06:15:13;;;;;;;;;;;;;;;17.37;53.62;101850.25;5022339;28;19949;-54
2022/07/24 06:17:39;;;;;;;;;;;;;;;17.42;53.43;101850.75;5028935;28;20323;-52
2022/07/24 06:20:05;;;;;;;;;;;;;;;17.46;53.48;101851.41;5028295;28;19913;-52
2022/07/24 06:22:31;;;;;;;;;;;;;;;17.49;53.34;101849.38;5025513;28;19966;-51
2022/07/24 06:24:56;;;;;;;;;;;;;;;17.52;53.26;101851.84;5025083;28;19917;-52
2022/07/24 06:27:22;;;;;;;;;;;;;;;17.58;52.96;101849.69;5015630;28;19975;-56
2022/07/24 06:29:47;;;;;;;;;;;;;;;17.59;52.83;101841.63;5022679;28;20379;-55
2022/07/24 06:32:12;;;;;;;;;;;;;;;17.65;52.89;101843.00;5011650;28;19917;-55
2022/07/24 06:34:38;;;;;;;;;;;;;;;17.72;52.66;101836.25;5025724;28;20380;-54
2022/07/24 06:37:03;;;;;;;;;;;;;;;17.79;52.54;101837.53;5026453;28;20600;-56
2022/07/24 06:39:29;;;;;;;;;;;;;;;17.83;52.62;101838.16;5018672;28;19979;-54
2022/07/24 06:41:54;;;;;;;;;;;;;;;17.91;52.20;101834.97;5026970;28;19999;-57
2022/07/24 06:44:19;;;;;;;;;;;;;;;17.96;52.06;101839.00;5024928;28;19913;-52
2022/07/24 06:46:45;;;;;;;;;;;;;;;17.96;51.88;101830.16;5028088;28;19924;-52
2022/07/24 06:49:10;;;;;;;;;;;;;;;17.94;52.03;101835.59;5021813;28;19947;-55
2022/07/24 06:51:35;;;;;;;;;;;;;;;18.00;51.81;101844.13;5023077;28;19920;-53
2022/07/24 06:54:00;;;;;;;;;;;;;;;18.05;51.63;101837.50;5025149;28;20330;-54
2022/07/24 06:56:26;;;;;;;;;;;;;;;18.10;51.44;101839.84;5006447;28;20417;-52
2022/07/24 06:58:51;;;;;;;;;;;;;;;18.13;51.44;101834.28;5020927;28;19917;-55
2022/07/24 07:01:16;;;;;;;;;;;;;;;18.15;51.22;101840.34;5033136;28;19913;-57
2022/07/24 07:03:42;;;;;;;;;;;;;;;18.11;51.44;101844.19;5024460;28;19920;-56
2022/07/24 07:06:08;;;;;;;;;;;;;;;18.09;51.60;101841.66;5023024;28;19923;-53
2022/07/24 07:08:33;;;;;;;;;;;;;;;18.15;51.47;101848.34;5017690;28;19917;-55
2022/07/24 07:10:58;;;;;;;;;;;;;;;18.21;51.43;101839.94;5022086;28;19928;-54
2022/07/24 07:13:24;;;;;;;;;;;;;;;18.30;51.34;101845.53;5001962;28;19929;-57
2022/07/24 07:15:49;;;;;;;;;;;;;;;18.36;50.92;101850.41;5029820;28;19913;-56
2022/07/24 07:18:14;;;;;;;;;;;;;;;18.38;50.93;101841.34;5024642;28;20363;-53
2022/07/24 07:20:40;;;;;;;;;;;;;;;18.42;50.77;101850.81;5020394;28;19925;-53
2022/07/24 07:23:05;;;;;;;;;;;;;;;18.47;50.73;101838.94;5019641;28;19913;-57
2022/07/24 07:25:31;;;;;;;;;;;;;;;18.50;50.52;101847.59;5028518;28;20007;-55
2022/07/24 07:27:56;;;;;;;;;;;;;;;18.52;50.26;101845.66;5030666;28;20016;-54
2022/07/24 07:30:21;;;;;;;;;;;;;;;18.52;50.24;101837.66;5023696;28;19932;-53
2022/07/24 07:32:47;;;;;;;;;;;;;;;18.55;50.29;101842.75;5021045;28;19923;-55
2022/07/24 07:35:12;;;;;;;;;;;;;;;18.59;50.31;101836.22;5022776;28;19925;-56
2022/07/24 07:37:37;;;;;;;;;;;;;;;18.59;50.12;101838.91;5025671;28;19916;-57
2022/07/24 07:40:03;;;;;;;;;;;;;;;18.61;50.15;101833.44;5027313;28;19958;-57
2022/07/24 07:42:28;;;;;;;;;;;;;;;18.59;50.08;101822.91;5030080;28;19913;-53
2022/07/24 07:44:53;;;;;;;;;;;;;;;18.61;49.97;101827.28;5028665;28;19924;-54
2022/07/24 07:47:19;;;;;;;;;;;;;;;18.66;49.94;101827.78;5025921;28;20346;-54
2022/07/24 07:49:44;;;;;;;;;;;;;;;18.71;49.75;101822.94;5030632;28;19935;-56
2022/07/24 07:52:09;;;;;;;;;;;;;;;18.76;49.82;101836.78;5027051;28;19974;-57
2022/07/24 07:54:35;;;;;;;;;;;;;;;18.79;49.45;101835.69;5029084;28;19917;-54
2022/07/24 07:57:00;;;;;;;;;;;;;;;18.81;49.42;101836.44;5029973;28;19917;-55
2022/07/24 07:59:25;;;;;;;;;;;;;;;18.86;49.71;101843.09;5023327;28;20475;-53
2022/07/24 08:01:51;;;;;;;;;;;;;;;18.92;49.32;101830.28;5029038;28;19913;-52
2022/07/24 08:04:16;;;;;;;;;;;;;;;18.97;49.32;101844.16;5027298;28;19917;-56
2022/07/24 08:06:41;;;;;;;;;;;;;;;19.02;49.14;101855.31;5026512;28;19924;-53
2022/07/24 08:09:07;;;;;;;;;;;;;;;19.06;48.86;101846.13;5032722;28;19913;-54
2022/07/24 08:11:32;;;;;;;;;;;;;;;19.06;48.70;101854.13;5030052;28;19917;-54
2022/07/24 08:13:58;;;;;;;;;;;;;;;19.03;48.72;101843.69;5027232;28;19923;-54
2022/07/24 08:16:23;;;;;;;;;;;;;;;19.04;48.65;101840.03;4998977;28;19936;-55
2022/07/24 08:18:48;;;;;;;;;;;;;;;19.08;48.70;101840.66;5019009;28;19925;-56
2022/07/24 08:21:15;;;;;;;;;;;;;;;19.10;48.36;101831.59;5012059;28;19921;-52
2022/07/24 08:23:40;;;;;;;;;;;;;;;19.13;48.31;101836.69;5023218;28;19932;-55
2022/07/24 08:26:06;;;;;;;;;;;;;;;19.18;48.36;101834.50;5005999;28;19928;-54
2022/07/24 08:28:31;;;;;;;;;;;;;;;19.23;48.53;101828.81;5012412;28;19916;-53
2022/07/24 08:30:56;;;;;;;;;;;;;;;19.28;48.21;101831.13;5017860;28;19991;-55
2022/07/24 08:33:21;;;;;;;;;;;;;;;19.32;48.17;101836.13;5025593;28;19932;-54
2022/07/24 08:35:47;;;;;;;;;;;;;;;19.38;48.12;101826.78;5004866;28;20010;-51
2022/07/24 08:38:12;;;;;;;;;;;;;;;19.44;48.27;101830.78;5023947;28;19921;-54
2022/07/24 08:40:38;;;;;;;;;;;;;;;19.47;47.89;101836.72;5010654;28;20380;-54
2022/07/24 08:43:05;;;;;;;;;;;;;;;19.52;47.56;101830.19;5022009;28;19917;-55
2022/07/24 08:45:33;;;;;;;;;;;;;;;19.55;47.27;101837.94;5025408;28;21468;-53
2022/07/24 08:47:59;;;;;;;;;;;;;;;19.57;47.52;101836.00;5002977;28;19921;-55
2022/07/24 08:50:25;;;;;;;;;;;;;;;19.62;47.23;101831.13;5024864;28;19913;-51
2022/07/24 08:52:50;;;;;;;;;;;;;;;19.65;47.37;101823.75;5025024;28;19937;-51
2022/07/24 08:55:17;;;;;;;;;;;;;;;19.69;47.38;101829.69;5025823;28;20415;-57
2022/07/24 08:57:42;;;;;;;;;;;;;;;19.72;47.27;101828.59;5005149;28;21008;-55
2022/07/24 09:00:07;;;;;;;;;;;;;;;19.76;47.10;101828.22;5021131;28;19963;-56
2022/07/24 09:02:33;;;;;;;;;;;;;;;19.78;46.71;101828.13;5017892;28;20052;-54
2022/07/24 09:05:02;;;;;;;;;;;;;;;19.81;46.93;101827.88;5019928;28;19948;-50
2022/07/24 09:07:28;;;;;;;;;;;;;;;19.84;46.72;101826.78;5024524;28;20363;-55
2022/07/24 09:10:01;;;;;;;;;;;;;;;19.88;46.54;101829.09;5014664;28;19917;-53
2022/07/24 09:12:30;;;;;;;;;;;;;;;19.94;46.44;101827.75;5010173;28;19921;-54
2022/07/24 09:14:55;;;;;;;;;;;;;;;19.99;46.45;101820.22;5014561;28;19916;-52
2022/07/24 09:17:20;;;;;;;;;;;;;;;20.03;46.27;101821.69;5019431;28;19932;-55
2022/07/24 09:19:53;;;;;;;;;;;;;;;20.07;46.31;101825.78;5007976;28;19924;-53
2022/07/24 09:22:34;;;;;;;;;;;;;;;20.13;46.30;101823.59;4989390;28;20297;-53
2022/07/24 09:25:03;;;;;;;;;;;;;;;20.17;45.99;101817.88;5003012;28;19983;-54
2022/07/24 09:27:29;;;;;;;;;;;;;;;20.22;45.76;101830.84;5006166;28;19953;-56
2022/07/24 09:29:54;;;;;;;;;;;;;;;20.26;45.73;101826.97;4997345;28;20008;-53
2022/07/24 09:32:22;;;;;;;;;;;;;;;20.29;45.57;101821.38;4998114;28;20360;-56
2022/07/24 09:34:50;;;;;;;;;;;;;;;20.33;45.55;101835.31;4998192;28;19931;-53
2022/07/24 09:37:15;;;;;;;;;;;;;;;20.39;45.26;101827.63;4996866;28;19960;-55
2022/07/24 09:39:41;;;;;;;;;;;;;;;20.45;45.58;101822.78;5008683;28;20056;-55
2022/07/24 09:42:07;;;;;;;;;;;;;;;20.45;45.31;101822.78;5016416;28;19924;-54
2022/07/24 09:44:32;;;;;;;;;;;;;;;20.48;45.63;101825.19;5011167;28;19948;-56
2022/07/24 09:46:59;;;;;;;;;;;;;;;20.48;45.29;101819.84;5015758;28;19921;-54
2022/07/24 09:49:25;;;;;;;;;;;;;;;20.52;45.21;101810.56;5021107;28;19931;-57
2022/07/24 09:52:10;;;;;;;;;;;;;;;20.61;45.24;101820.53;5018739;28;19925;-57
2022/07/24 09:54:37;;;;;;;;;;;;;;;20.67;45.40;101814.63;5021300;28;19917;-55
2022/07/24 09:57:18;;;;;;;;;;;;;;;20.74;45.12;101816.81;5001372;28;19933;-57
2022/07/24 09:59:55;;;;;;;;;;;;;;;20.79;44.71;101820.00;4997111;28;19928;-57
2022/07/24 10:02:22;;;;;;;;;;;;;;;20.80;44.85;101813.63;5002339;28;19967;-56
2022/07/24 10:04:48;;;;;;;;;;;;;;;20.81;44.69;101815.34;5015621;28;19956;-58
2022/07/24 10:07:14;;;;;;;;;;;;;;;20.87;45.12;101825.53;5016796;28;19920;-54
2022/07/24 10:09:41;;;;;;;;;;;;;;;20.93;44.60;101808.97;5018047;28;19921;-54
2022/07/24 10:12:10;;;;;;;;;;;;;;;20.98;44.75;101809.41;5016152;28;19924;-54
2022/07/24 10:14:36;;;;;;;;;;;;;;;21.03;44.35;101809.00;5003160;28;20451;-55
2022/07/24 10:17:06;;;;;;;;;;;;;;;21.12;44.26;101807.34;5016634;28;19921;-57
2022/07/24 10:19:38;;;;;;;;;;;;;;;21.17;43.95;101810.50;5012840;28;19924;-57
2022/07/24 10:22:08;;;;;;;;;;;;;;;21.20;43.71;101810.25;5016417;28;20008;-55
2022/07/24 10:24:39;;;;;;;;;;;;;;;21.23;43.86;101807.31;5014527;28;19917;-57
2022/07/24 10:27:05;;;;;;;;;;;;;;;21.24;43.97;101800.97;5021816;28;19919;-56
2022/07/24 10:29:32;;;;;;;;;;;;;;;21.26;43.84;101803.50;5008652;28;20343;-56
2022/07/24 10:31:58;;;;;;;;;;;;;;;21.29;43.64;101806.75;5027854;28;19963;-58
2022/07/24 10:34:26;;;;;;;;;;;;;;;21.36;43.85;101803.56;5019786;28;19929;-57
2022/07/24 10:37:04;;;;;;;;;;;;;;;21.43;43.77;101804.69;5017946;28;19925;-55
2022/07/24 10:39:53;;;;;;;;;;;;;;;21.50;43.59;101803.19;5020931;28;20470;-57
2022/07/24 10:42:18;;;;;;;;;;;;;;;21.61;43.66;101807.63;4994641;28;19920;-56
2022/07/24 10:44:46;;;;;;;;;;;;;;;21.72;43.08;101814.72;5018761;28;19921;-54
2022/07/24 10:47:13;;;;;;;;;;;;;;;21.81;42.99;101808.56;5014389;28;19995;-57
2022/07/24 10:49:46;;;;;;;;;;;;;;;21.86;42.82;101806.28;5010615;28;20400;-56
2022/07/24 10:52:22;;;;;;;;;;;;;;;21.91;42.56;101801.38;5009725;28;19940;-55
2022/07/24 10:54:48;;;;;;;;;;;;;;;21.96;42.75;101795.59;5020466;28;19943;-54
2022/07/24 10:57:14;;;;;;;;;;;;;;;22.03;42.59;101801.25;5013815;28;19917;-54
2022/07/24 10:59:42;;;;;;;;;;;;;;;22.11;42.47;101798.75;5050337;22;19928;-56
2022/07/24 11:02:28;;;;;;;;;;;;;;;22.21;41.98;101799.59;5077182;28;19927;-60
2022/07/24 11:05:12;;;;;;;;;;;;;;;22.30;41.96;101797.06;5080898;28;19916;-56
2022/07/24 11:07:37;;;;;;;;;;;;;;;22.33;41.67;101786.91;5083365;28;19915;-58
2022/07/24 11:10:07;;;;;;;;;;;;;;;22.36;41.71;101791.13;5078380;28;19924;-61
2022/07/24 11:12:33;;;;;;;;;;;;;;;22.39;41.69;101777.44;5065703;28;19927;-54
2022/07/24 11:17:47;;;;;;;;;;;;;;;22.48;41.87;101778.47;5077640;28;19926;-52
2022/07/24 11:20:19;;;;;;;;;;;;;;;22.59;41.71;101780.16;5073038;28;19920;-56
2022/07/24 11:22:52;;;;;;;;;;;;;;;22.69;41.11;101784.50;5068714;28;20404;-57
2022/07/24 11:25:27;;;;;;;;;;;;;;;22.79;40.96;101781.81;5068527;28;19920;-53
2022/07/24 11:28:12;;;;;;;;;;;;;;;22.86;40.83;101783.91;5058697;28;19924;-52
2022/07/24 11:30:41;;;;;;;;;;;;;;;22.88;40.76;101777.41;5056196;28;19912;-52
2022/07/24 11:33:06;;;;;;;;;;;;;;;22.88;40.68;101774.72;5062728;28;20019;-55
2022/07/24 11:35:35;;;;;;;;;;;;;;;22.93;40.83;101772.47;5061664;28;20018;-55
2022/07/24 11:38:02;;;;;;;;;;;;;;;23.01;40.47;101774.41;5057478;28;20443;-56
2022/07/24 11:40:27;;;;;;;;;;;;;;;23.04;40.55;101774.13;5064309;28;19916;-57
2022/07/24 11:43:00;;;;;;;;;;;;;;;23.06;40.45;101769.47;5051524;28;19927;-55
2022/07/24 11:45:25;;;;;;;;;;;;;;;23.10;40.48;101764.66;5063856;28;19925;-59
2022/07/24 11:47:54;;;;;;;;;;;;;;;23.15;40.52;101754.28;5074844;28;19942;-55
2022/07/24 11:50:20;;;;;;;;;;;;;;;23.25;40.33;101756.97;5065009;28;19929;-57
2022/07/24 11:52:45;;;;;;;;;;;;;;;23.32;39.97;101754.53;5066251;28;20007;-56
2022/07/24 11:55:13;;;;;;;;;;;;;;;23.38;40.09;101754.78;5069186;28;19920;-52
2022/07/24 11:57:39;;;;;;;;;;;;;;;23.44;39.88;101759.59;5073833;28;19920;-52
2022/07/24 12:00:08;;;;;;;;;;;;;;;23.49;39.57;101750.25;5062236;28;20403;-53
2022/07/24 12:02:33;;;;;;;;;;;;;;;23.59;39.36;101751.03;5059642;28;19922;-56
2022/07/24 12:04:59;;;;;;;;;;;;;;;23.64;39.15;101754.13;5059457;28;20696;-58
2022/07/24 12:07:25;;;;;;;;;;;;;;;23.68;39.14;101747.44;5067219;28;19931;-52
2022/07/24 12:09:55;;;;;;;;;;;;;;;23.74;39.02;101748.69;5064325;28;19973;-56
2022/07/24 12:12:27;;;;;;;;;;;;;;;23.77;39.09;101743.00;5066788;28;19920;-53
2022/07/24 12:15:00;;;;;;;;;;;;;;;23.79;39.05;101735.63;5070628;28;19969;-57
2022/07/24 12:17:25;;;;;;;;;;;;;;;23.83;39.00;101725.41;5064198;28;19924;-54
2022/07/24 12:19:51;;;;;;;;;;;;;;;23.86;39.14;101731.34;5064470;28;19920;-54
2022/07/24 12:22:17;;;;;;;;;;;;;;;23.92;38.94;101740.63;5064910;28;19920;-55
2022/07/24 12:24:43;;;;;;;;;;;;;;;24.01;38.93;101737.06;5067847;28;19924;-54
2022/07/24 12:27:08;;;;;;;;;;;;;;;24.11;38.79;101738.84;5063255;28;20053;-55
2022/07/24 12:29:41;;;;;;;;;;;;;;;24.17;38.48;101733.69;5061346;28;19927;-53
2022/07/24 12:32:13;;;;;;;;;;;;;;;24.21;38.29;101723.47;5061233;28;20631;-55
2022/07/24 12:34:42;;;;;;;;;;;;;;;24.26;38.19;101723.84;5057795;28;19926;-55